DWI2100 MDSD-KMIA
Flight info
| Callsign | DWI2100 |
|---|---|
| Flight time | 2h 1m |
| Altitude | 36000 |
| Route | MALVN4L MALVN Y261 MADIZ VIICE2 |
| Aircraft | B38M/M-SDE1FGHILORVWXY/HB1 |
Departure
| Time | 2026-05-04 13:35 |
|---|---|
| Airport | Las Américas International Airport (MDSD) |
Arrival
| Time | 2026-05-04 15:36 |
|---|---|
| Airport | Miami International Airport (KMIA) |
| Time | Latitude | Longitude | Altitude | Speed | Heading |
|---|---|---|---|---|---|
| 2026-05-04 13:13 | 18.42946 | -69.67438 | 70 ft | 0 kts | 251° |
| 2026-05-04 13:24 | 18.42950 | -69.67427 | 65 ft | 3 kts | 251° |
| 2026-05-04 13:25 | 18.42958 | -69.67387 | 60 ft | 3 kts | 283° |
| 2026-05-04 13:25 | 18.42954 | -69.67375 | 64 ft | 0 kts | 296° |
| 2026-05-04 13:29 | 18.42956 | -69.67376 | 63 ft | 1 kts | 319° |
| 2026-05-04 13:30 | 18.42967 | -69.67355 | 65 ft | 8 kts | 81° |
| 2026-05-04 13:30 | 18.42965 | -69.67276 | 64 ft | 13 kts | 95° |
| 2026-05-04 13:30 | 18.42956 | -69.67177 | 62 ft | 13 kts | 96° |
| 2026-05-04 13:30 | 18.42941 | -69.67100 | 65 ft | 8 kts | 120° |
| 2026-05-04 13:31 | 18.42894 | -69.67061 | 73 ft | 9 kts | 153° |
| 2026-05-04 13:31 | 18.42828 | -69.67028 | 71 ft | 12 kts | 157° |
| 2026-05-04 13:31 | 18.42727 | -69.66992 | 70 ft | 19 kts | 167° |
| 2026-05-04 13:31 | 18.42579 | -69.66941 | 68 ft | 25 kts | 161° |
| 2026-05-04 13:32 | 18.42407 | -69.66872 | 67 ft | 27 kts | 162° |
| 2026-05-04 13:32 | 18.42220 | -69.66813 | 70 ft | 28 kts | 160° |
| 2026-05-04 13:32 | 18.42029 | -69.66745 | 70 ft | 30 kts | 161° |
| 2026-05-04 13:32 | 18.41831 | -69.66673 | 72 ft | 30 kts | 161° |
| 2026-05-04 13:33 | 18.41670 | -69.66614 | 72 ft | 15 kts | 159° |
| 2026-05-04 13:33 | 18.41596 | -69.66567 | 73 ft | 7 kts | 177° |
| 2026-05-04 13:33 | 18.41578 | -69.66583 | 73 ft | 3 kts | 274° |
| 2026-05-04 13:33 | 18.41599 | -69.66593 | 71 ft | 5 kts | 350° |
| 2026-05-04 13:34 | 18.41629 | -69.66600 | 68 ft | 1 kts | 339° |
| 2026-05-04 13:34 | 18.41643 | -69.66606 | 63 ft | 5 kts | 338° |
| 2026-05-04 13:34 | 18.41871 | -69.66688 | 69 ft | 77 kts | 341° |
| 2026-05-04 13:34 | 18.42635 | -69.66966 | 65 ft | 153 kts | 342° |
| 2026-05-04 13:35 | 18.43847 | -69.67272 | 298 ft | 194 kts | 350° |
| 2026-05-04 13:35 | 18.46612 | -69.68027 | 1762 ft | 216 kts | 345° |
| 2026-05-04 13:35 | 18.48157 | -69.68557 | 2063 ft | 254 kts | 342° |
| 2026-05-04 13:36 | 18.49921 | -69.69288 | 2303 ft | 286 kts | 338° |
| 2026-05-04 13:36 | 18.51711 | -69.70231 | 3126 ft | 286 kts | 331° |
| 2026-05-04 13:36 | 18.53303 | -69.71369 | 4427 ft | 266 kts | 322° |
| 2026-05-04 13:36 | 18.54603 | -69.72709 | 5504 ft | 261 kts | 310° |
| 2026-05-04 13:37 | 18.55637 | -69.74323 | 5933 ft | 281 kts | 298° |
| 2026-05-04 13:37 | 18.56404 | -69.76330 | 6018 ft | 308 kts | 285° |
| 2026-05-04 13:37 | 18.56748 | -69.78590 | 6478 ft | 314 kts | 271° |
| 2026-05-04 13:37 | 18.56676 | -69.80095 | 7097 ft | 304 kts | 260° |
| 2026-05-04 13:38 | 18.55919 | -69.82859 | 8401 ft | 289 kts | 254° |
| 2026-05-04 13:38 | 18.55767 | -69.84952 | 8080 ft | 292 kts | 278° |
| 2026-05-04 13:38 | 18.56410 | -69.86991 | 7738 ft | 296 kts | 298° |
| 2026-05-04 13:38 | 18.57675 | -69.88660 | 7939 ft | 296 kts | 322° |
| 2026-05-04 13:39 | 18.59318 | -69.89955 | 8855 ft | 297 kts | 321° |
| 2026-05-04 13:39 | 18.60944 | -69.91357 | 9649 ft | 304 kts | 320° |
| 2026-05-04 13:39 | 18.62595 | -69.92783 | 10426 ft | 312 kts | 320° |
| 2026-05-04 13:39 | 18.64324 | -69.94280 | 10867 ft | 330 kts | 320° |
| 2026-05-04 13:40 | 18.66134 | -69.95846 | 11408 ft | 342 kts | 319° |
| 2026-05-04 13:40 | 18.67980 | -69.97438 | 12230 ft | 343 kts | 319° |
| 2026-05-04 13:40 | 18.69834 | -69.99035 | 13077 ft | 345 kts | 319° |
| 2026-05-04 13:40 | 18.71680 | -70.00624 | 13903 ft | 347 kts | 319° |
| 2026-05-04 13:41 | 18.73563 | -70.02245 | 14644 ft | 349 kts | 319° |
| 2026-05-04 13:41 | 18.75451 | -70.03872 | 15372 ft | 351 kts | 319° |
| 2026-05-04 13:41 | 18.77347 | -70.05506 | 16131 ft | 353 kts | 319° |
| 2026-05-04 13:42 | 18.81172 | -70.08803 | 17571 ft | 356 kts | 318° |
| 2026-05-04 13:42 | 18.83096 | -70.10463 | 18260 ft | 358 kts | 318° |
| 2026-05-04 13:42 | 18.85007 | -70.12110 | 18859 ft | 360 kts | 318° |
| 2026-05-04 13:42 | 18.86955 | -70.13789 | 19363 ft | 364 kts | 318° |
| 2026-05-04 13:43 | 18.88936 | -70.15498 | 19847 ft | 369 kts | 318° |
| 2026-05-04 13:43 | 18.90937 | -70.17225 | 20322 ft | 374 kts | 318° |
| 2026-05-04 13:43 | 18.92960 | -70.18971 | 20817 ft | 377 kts | 319° |
| 2026-05-04 13:43 | 18.95010 | -70.20742 | 21281 ft | 382 kts | 319° |
| 2026-05-04 13:44 | 18.97084 | -70.22534 | 21764 ft | 386 kts | 319° |
| 2026-05-04 13:44 | 18.99175 | -70.24342 | 22221 ft | 390 kts | 319° |
| 2026-05-04 13:44 | 19.01286 | -70.26167 | 22680 ft | 394 kts | 319° |
| 2026-05-04 13:44 | 19.03422 | -70.28014 | 23127 ft | 398 kts | 319° |
| 2026-05-04 13:45 | 19.05580 | -70.29880 | 23567 ft | 402 kts | 319° |
| 2026-05-04 13:45 | 19.07727 | -70.31739 | 23947 ft | 406 kts | 319° |
| 2026-05-04 13:45 | 19.09920 | -70.33638 | 24372 ft | 408 kts | 319° |
| 2026-05-04 13:45 | 19.12123 | -70.35546 | 24814 ft | 410 kts | 319° |
| 2026-05-04 13:46 | 19.14331 | -70.37459 | 25234 ft | 411 kts | 319° |
| 2026-05-04 13:46 | 19.16557 | -70.39388 | 25648 ft | 413 kts | 319° |
| 2026-05-04 13:46 | 19.18782 | -70.41317 | 26055 ft | 415 kts | 319° |
| 2026-05-04 13:46 | 19.21021 | -70.43259 | 26460 ft | 416 kts | 319° |
| 2026-05-04 13:47 | 19.23265 | -70.45205 | 26867 ft | 418 kts | 319° |
| 2026-05-04 13:47 | 19.25521 | -70.47164 | 27268 ft | 420 kts | 319° |
| 2026-05-04 13:47 | 19.27783 | -70.49126 | 27669 ft | 421 kts | 319° |
| 2026-05-04 13:47 | 19.30032 | -70.51080 | 28045 ft | 423 kts | 318° |
| 2026-05-04 13:48 | 19.32318 | -70.53065 | 28441 ft | 425 kts | 318° |
| 2026-05-04 13:48 | 19.34608 | -70.55056 | 28812 ft | 427 kts | 318° |
| 2026-05-04 13:48 | 19.36908 | -70.57055 | 29190 ft | 429 kts | 318° |
| 2026-05-04 13:48 | 19.39213 | -70.59060 | 29548 ft | 430 kts | 318° |
| 2026-05-04 13:49 | 19.41607 | -70.61003 | 29908 ft | 433 kts | 322° |
| 2026-05-04 13:49 | 19.44058 | -70.62876 | 30234 ft | 435 kts | 321° |
| 2026-05-04 13:49 | 19.46508 | -70.64768 | 30513 ft | 437 kts | 321° |
| 2026-05-04 13:49 | 19.48942 | -70.66655 | 30782 ft | 439 kts | 321° |
| 2026-05-04 13:50 | 19.51418 | -70.68580 | 31051 ft | 442 kts | 321° |
| 2026-05-04 13:50 | 19.53904 | -70.70513 | 31325 ft | 444 kts | 321° |
| 2026-05-04 13:50 | 19.56404 | -70.72458 | 31594 ft | 447 kts | 321° |
| 2026-05-04 13:50 | 19.58075 | -70.73759 | 31760 ft | 448 kts | 321° |
| 2026-05-04 13:51 | 19.60594 | -70.75720 | 32019 ft | 451 kts | 321° |
| 2026-05-04 13:51 | 19.63128 | -70.77694 | 32275 ft | 453 kts | 321° |
| 2026-05-04 13:51 | 19.65679 | -70.79682 | 32545 ft | 455 kts | 321° |
| 2026-05-04 13:51 | 19.69073 | -70.82328 | 32880 ft | 457 kts | 321° |
| 2026-05-04 13:52 | 19.73384 | -70.85691 | 33275 ft | 461 kts | 321° |
| 2026-05-04 13:52 | 19.75943 | -70.87689 | 33570 ft | 462 kts | 321° |
| 2026-05-04 13:52 | 19.78536 | -70.89713 | 33914 ft | 462 kts | 321° |
| 2026-05-04 13:53 | 19.81123 | -70.91735 | 34227 ft | 461 kts | 321° |
| 2026-05-04 13:53 | 19.83705 | -70.93752 | 34587 ft | 459 kts | 321° |
| 2026-05-04 13:53 | 19.86276 | -70.95763 | 34966 ft | 456 kts | 321° |
| 2026-05-04 13:54 | 19.91366 | -70.99744 | 35703 ft | 451 kts | 320° |
| 2026-05-04 13:54 | 19.93887 | -71.01718 | 35995 ft | 451 kts | 320° |
| 2026-05-04 13:55 | 20.01408 | -71.07609 | 36047 ft | 444 kts | 320° |
| 2026-05-04 13:55 | 20.08846 | -71.13443 | 36042 ft | 444 kts | 320° |
| 2026-05-04 13:56 | 20.13819 | -71.17348 | 36043 ft | 444 kts | 320° |
| 2026-05-04 13:57 | 20.21283 | -71.23214 | 36040 ft | 444 kts | 320° |
| 2026-05-04 13:58 | 20.31181 | -71.31005 | 36040 ft | 443 kts | 320° |
| 2026-05-04 13:58 | 20.38612 | -71.36860 | 36040 ft | 443 kts | 320° |
| 2026-05-04 13:59 | 20.42876 | -71.41437 | 36052 ft | 433 kts | 302° |
| 2026-05-04 14:00 | 20.48014 | -71.49363 | 36043 ft | 434 kts | 301° |
| 2026-05-04 14:00 | 20.53080 | -71.57391 | 36042 ft | 434 kts | 301° |
| 2026-05-04 14:01 | 20.56429 | -71.62722 | 36038 ft | 436 kts | 301° |
| 2026-05-04 14:02 | 20.61489 | -71.70783 | 36037 ft | 435 kts | 301° |
| 2026-05-04 14:02 | 20.64858 | -71.76157 | 36040 ft | 435 kts | 301° |
| 2026-05-04 14:03 | 20.68223 | -71.81528 | 36037 ft | 435 kts | 301° |
| 2026-05-04 14:03 | 20.71583 | -71.86898 | 36039 ft | 434 kts | 301° |
| 2026-05-04 14:04 | 20.76618 | -71.94953 | 36038 ft | 434 kts | 301° |
| 2026-05-04 14:04 | 20.79968 | -72.00318 | 36043 ft | 434 kts | 301° |
| 2026-05-04 14:05 | 20.84974 | -72.08346 | 36040 ft | 433 kts | 301° |
| 2026-05-04 14:06 | 20.88315 | -72.13708 | 36037 ft | 433 kts | 300° |
| 2026-05-04 14:06 | 20.91656 | -72.19078 | 36040 ft | 433 kts | 300° |
| 2026-05-04 14:07 | 20.94978 | -72.24422 | 36034 ft | 433 kts | 300° |
| 2026-05-04 14:07 | 20.98333 | -72.29824 | 36036 ft | 433 kts | 300° |
| 2026-05-04 14:08 | 21.01646 | -72.35161 | 36037 ft | 433 kts | 300° |
| 2026-05-04 14:08 | 21.04972 | -72.40528 | 36039 ft | 433 kts | 300° |
| 2026-05-04 14:09 | 21.09972 | -72.48603 | 36038 ft | 433 kts | 300° |
| 2026-05-04 14:10 | 21.14944 | -72.56642 | 36045 ft | 432 kts | 300° |
| 2026-05-04 14:10 | 21.18268 | -72.62026 | 36044 ft | 432 kts | 300° |
| 2026-05-04 14:11 | 21.18431 | -72.62290 | 36041 ft | 432 kts | 300° |
| 2026-05-04 14:11 | 21.20901 | -72.66296 | 36042 ft | 432 kts | 300° |
| 2026-05-04 14:12 | 21.24212 | -72.71673 | 36100 ft | 433 kts | 300° |
| 2026-05-04 14:13 | 21.29169 | -72.79720 | 36044 ft | 432 kts | 300° |
| 2026-05-04 14:13 | 21.32475 | -72.85097 | 36041 ft | 431 kts | 300° |
| 2026-05-04 14:14 | 21.35756 | -72.90439 | 36042 ft | 431 kts | 300° |
| 2026-05-04 14:14 | 21.40705 | -72.98506 | 36043 ft | 431 kts | 300° |
| 2026-05-04 14:15 | 21.47291 | -73.09261 | 36043 ft | 430 kts | 300° |
| 2026-05-04 14:16 | 21.52219 | -73.17321 | 36044 ft | 430 kts | 300° |
| 2026-05-04 14:17 | 21.57122 | -73.25352 | 36044 ft | 429 kts | 300° |
| 2026-05-04 14:18 | 21.62037 | -73.33414 | 36046 ft | 429 kts | 299° |
| 2026-05-04 14:19 | 21.68550 | -73.44116 | 36044 ft | 428 kts | 299° |
| 2026-05-04 14:19 | 21.71819 | -73.49494 | 36045 ft | 428 kts | 299° |
| 2026-05-04 14:20 | 21.75076 | -73.54861 | 36046 ft | 428 kts | 299° |
| 2026-05-04 14:20 | 21.78331 | -73.60227 | 36050 ft | 428 kts | 299° |
| 2026-05-04 14:21 | 21.83181 | -73.68233 | 36050 ft | 427 kts | 299° |
| 2026-05-04 14:21 | 21.86418 | -73.73585 | 36052 ft | 427 kts | 299° |
| 2026-05-04 14:22 | 21.89655 | -73.78939 | 36050 ft | 426 kts | 299° |
| 2026-05-04 14:22 | 21.92887 | -73.84292 | 36050 ft | 426 kts | 299° |
| 2026-05-04 14:23 | 21.97709 | -73.92289 | 36051 ft | 425 kts | 299° |
| 2026-05-04 14:24 | 22.00925 | -73.97628 | 36049 ft | 424 kts | 298° |
| 2026-05-04 14:24 | 22.04140 | -74.02971 | 36050 ft | 424 kts | 298° |
| 2026-05-04 14:25 | 22.07353 | -74.08316 | 36049 ft | 423 kts | 298° |
| 2026-05-04 14:25 | 22.12084 | -74.16197 | 36049 ft | 422 kts | 298° |
| 2026-05-04 14:26 | 22.15276 | -74.21519 | 36048 ft | 422 kts | 298° |
| 2026-05-04 14:26 | 22.18462 | -74.26837 | 36055 ft | 421 kts | 298° |
| 2026-05-04 14:27 | 22.21624 | -74.32121 | 36051 ft | 420 kts | 298° |
| 2026-05-04 14:27 | 22.24797 | -74.37429 | 36047 ft | 420 kts | 298° |
| 2026-05-04 14:28 | 22.27960 | -74.42724 | 36047 ft | 419 kts | 298° |
| 2026-05-04 14:28 | 22.31121 | -74.48023 | 36049 ft | 419 kts | 298° |
| 2026-05-04 14:29 | 22.37431 | -74.58613 | 36056 ft | 418 kts | 298° |
| 2026-05-04 14:30 | 22.40575 | -74.63898 | 36051 ft | 418 kts | 298° |
| 2026-05-04 14:31 | 22.45259 | -74.71782 | 36051 ft | 417 kts | 298° |
| 2026-05-04 14:32 | 22.51532 | -74.82360 | 36052 ft | 417 kts | 298° |
| 2026-05-04 14:32 | 22.54663 | -74.87646 | 36052 ft | 417 kts | 298° |
| 2026-05-04 14:33 | 22.57792 | -74.92934 | 36053 ft | 417 kts | 298° |
| 2026-05-04 14:33 | 22.60897 | -74.98188 | 36055 ft | 417 kts | 297° |
| 2026-05-04 14:34 | 22.64039 | -75.03509 | 36056 ft | 417 kts | 297° |
| 2026-05-04 14:34 | 22.67140 | -75.08766 | 36054 ft | 417 kts | 297° |
| 2026-05-04 14:35 | 22.70257 | -75.14057 | 36052 ft | 416 kts | 297° |
| 2026-05-04 14:35 | 22.73367 | -75.19341 | 36052 ft | 416 kts | 297° |
| 2026-05-04 14:36 | 22.76478 | -75.24630 | 36051 ft | 416 kts | 297° |
| 2026-05-04 14:36 | 22.79568 | -75.29891 | 36053 ft | 415 kts | 297° |
| 2026-05-04 14:37 | 22.82665 | -75.35169 | 36051 ft | 415 kts | 297° |
| 2026-05-04 14:37 | 22.85261 | -75.39596 | 36053 ft | 415 kts | 297° |
| 2026-05-04 14:38 | 22.88337 | -75.44847 | 36053 ft | 414 kts | 297° |
| 2026-05-04 14:38 | 22.91431 | -75.50134 | 36052 ft | 414 kts | 297° |
| 2026-05-04 14:39 | 22.94516 | -75.55413 | 36056 ft | 414 kts | 297° |
| 2026-05-04 14:39 | 22.97597 | -75.60688 | 36055 ft | 413 kts | 297° |
| 2026-05-04 14:40 | 23.02186 | -75.68557 | 36053 ft | 413 kts | 297° |
| 2026-05-04 14:40 | 23.05256 | -75.73827 | 36054 ft | 412 kts | 297° |
| 2026-05-04 14:41 | 23.08324 | -75.79099 | 36050 ft | 412 kts | 296° |
| 2026-05-04 14:42 | 23.14439 | -75.89624 | 36053 ft | 411 kts | 296° |
| 2026-05-04 14:42 | 23.17491 | -75.94886 | 36052 ft | 411 kts | 296° |
| 2026-05-04 14:43 | 23.20519 | -76.00110 | 36053 ft | 411 kts | 296° |
| 2026-05-04 14:43 | 23.23561 | -76.05366 | 36054 ft | 411 kts | 296° |
| 2026-05-04 14:44 | 23.26606 | -76.10631 | 36053 ft | 411 kts | 296° |
| 2026-05-04 14:44 | 23.29650 | -76.15900 | 36053 ft | 410 kts | 296° |
| 2026-05-04 14:45 | 23.32684 | -76.21158 | 36053 ft | 410 kts | 296° |
| 2026-05-04 14:45 | 23.35698 | -76.26386 | 36047 ft | 410 kts | 296° |
| 2026-05-04 14:46 | 23.38730 | -76.31650 | 36049 ft | 410 kts | 296° |
| 2026-05-04 14:46 | 23.41756 | -76.36909 | 36046 ft | 410 kts | 296° |
| 2026-05-04 14:47 | 23.44780 | -76.42171 | 36046 ft | 409 kts | 296° |
| 2026-05-04 14:47 | 23.47803 | -76.47437 | 36047 ft | 409 kts | 296° |
| 2026-05-04 14:48 | 23.50819 | -76.52694 | 36049 ft | 409 kts | 296° |
| 2026-05-04 14:48 | 23.53832 | -76.57954 | 36050 ft | 409 kts | 296° |
| 2026-05-04 14:49 | 23.56849 | -76.63225 | 36050 ft | 409 kts | 296° |
| 2026-05-04 14:49 | 23.59839 | -76.68455 | 36050 ft | 409 kts | 296° |
| 2026-05-04 14:50 | 23.62848 | -76.73723 | 36047 ft | 409 kts | 296° |
| 2026-05-04 14:50 | 23.65851 | -76.78987 | 36045 ft | 409 kts | 296° |
| 2026-05-04 14:51 | 23.68858 | -76.84262 | 36046 ft | 409 kts | 296° |
| 2026-05-04 14:51 | 23.71857 | -76.89530 | 36047 ft | 409 kts | 296° |
| 2026-05-04 14:52 | 23.74858 | -76.94807 | 36048 ft | 409 kts | 296° |
| 2026-05-04 14:52 | 23.77837 | -77.00050 | 36044 ft | 409 kts | 296° |
| 2026-05-04 14:53 | 23.80835 | -77.05332 | 36046 ft | 409 kts | 296° |
| 2026-05-04 14:53 | 23.83835 | -77.10624 | 36047 ft | 409 kts | 296° |
| 2026-05-04 14:54 | 23.86832 | -77.15917 | 36050 ft | 409 kts | 296° |
| 2026-05-04 14:54 | 23.89810 | -77.21180 | 36050 ft | 409 kts | 296° |
| 2026-05-04 14:55 | 23.92801 | -77.26473 | 36049 ft | 409 kts | 296° |
| 2026-05-04 14:55 | 23.95797 | -77.31780 | 36050 ft | 409 kts | 296° |
| 2026-05-04 14:56 | 23.98789 | -77.37085 | 36048 ft | 409 kts | 295° |
| 2026-05-04 14:56 | 24.01779 | -77.42390 | 36047 ft | 410 kts | 295° |
| 2026-05-04 14:57 | 24.04745 | -77.47659 | 36045 ft | 410 kts | 295° |
| 2026-05-04 14:57 | 24.07734 | -77.52975 | 36045 ft | 410 kts | 295° |
| 2026-05-04 14:58 | 24.10721 | -77.58293 | 36046 ft | 410 kts | 295° |
| 2026-05-04 14:58 | 24.13701 | -77.63603 | 36048 ft | 409 kts | 295° |
| 2026-05-04 14:59 | 24.16683 | -77.68923 | 36046 ft | 409 kts | 295° |
| 2026-05-04 15:00 | 24.21128 | -77.76864 | 36039 ft | 409 kts | 295° |
| 2026-05-04 15:00 | 24.24108 | -77.82196 | 36050 ft | 408 kts | 295° |
| 2026-05-04 15:01 | 24.28701 | -77.90038 | 36059 ft | 409 kts | 297° |
| 2026-05-04 15:01 | 24.31887 | -77.95209 | 36052 ft | 409 kts | 297° |
| 2026-05-04 15:02 | 24.35061 | -78.00378 | 36050 ft | 408 kts | 297° |
| 2026-05-04 15:02 | 24.38229 | -78.05544 | 36046 ft | 407 kts | 297° |
| 2026-05-04 15:03 | 24.41388 | -78.10702 | 36052 ft | 407 kts | 297° |
| 2026-05-04 15:03 | 24.44542 | -78.15856 | 36044 ft | 406 kts | 297° |
| 2026-05-04 15:04 | 24.47671 | -78.20973 | 36047 ft | 406 kts | 297° |
| 2026-05-04 15:04 | 24.50815 | -78.26123 | 36056 ft | 406 kts | 297° |
| 2026-05-04 15:05 | 24.53960 | -78.31278 | 36050 ft | 406 kts | 297° |
| 2026-05-04 15:05 | 24.57102 | -78.36434 | 36048 ft | 405 kts | 297° |
| 2026-05-04 15:06 | 24.60221 | -78.41557 | 36050 ft | 405 kts | 297° |
| 2026-05-04 15:07 | 24.64925 | -78.49295 | 36046 ft | 405 kts | 297° |
| 2026-05-04 15:07 | 24.68055 | -78.54450 | 36048 ft | 405 kts | 297° |
| 2026-05-04 15:08 | 24.71187 | -78.59614 | 36046 ft | 405 kts | 297° |
| 2026-05-04 15:08 | 24.74295 | -78.64744 | 36048 ft | 405 kts | 297° |
| 2026-05-04 15:09 | 24.77419 | -78.69905 | 36043 ft | 405 kts | 297° |
| 2026-05-04 15:09 | 24.78957 | -78.72442 | 36041 ft | 388 kts | 297° |
| 2026-05-04 15:09 | 24.80424 | -78.74868 | 36050 ft | 372 kts | 296° |
| 2026-05-04 15:10 | 24.83297 | -78.79622 | 35176 ft | 381 kts | 297° |
| 2026-05-04 15:10 | 24.84752 | -78.82027 | 34663 ft | 383 kts | 297° |
| 2026-05-04 15:10 | 24.87725 | -78.86948 | 33597 ft | 387 kts | 298° |
| 2026-05-04 15:11 | 24.89210 | -78.89409 | 33054 ft | 385 kts | 298° |
| 2026-05-04 15:11 | 24.90682 | -78.91850 | 32572 ft | 381 kts | 298° |
| 2026-05-04 15:11 | 24.92148 | -78.94281 | 32080 ft | 378 kts | 299° |
| 2026-05-04 15:11 | 24.93595 | -78.96682 | 31600 ft | 375 kts | 299° |
| 2026-05-04 15:12 | 24.95033 | -78.99071 | 31128 ft | 372 kts | 299° |
| 2026-05-04 15:12 | 24.96461 | -79.01443 | 30660 ft | 370 kts | 299° |
| 2026-05-04 15:12 | 24.97862 | -79.03772 | 30217 ft | 367 kts | 299° |
| 2026-05-04 15:12 | 24.99271 | -79.06115 | 29690 ft | 365 kts | 299° |
| 2026-05-04 15:13 | 25.00668 | -79.08439 | 29203 ft | 362 kts | 299° |
| 2026-05-04 15:13 | 25.02051 | -79.10740 | 28766 ft | 358 kts | 299° |
| 2026-05-04 15:13 | 25.03426 | -79.13031 | 28245 ft | 356 kts | 299° |
| 2026-05-04 15:13 | 25.04789 | -79.15301 | 27850 ft | 352 kts | 299° |
| 2026-05-04 15:14 | 25.06135 | -79.17544 | 27457 ft | 348 kts | 299° |
| 2026-05-04 15:14 | 25.07465 | -79.19763 | 27069 ft | 345 kts | 299° |
| 2026-05-04 15:14 | 25.08784 | -79.21964 | 26675 ft | 342 kts | 299° |
| 2026-05-04 15:14 | 25.10083 | -79.24132 | 26130 ft | 344 kts | 300° |
| 2026-05-04 15:15 | 25.11413 | -79.26354 | 25567 ft | 352 kts | 300° |
| 2026-05-04 15:15 | 25.12789 | -79.28652 | 24960 ft | 362 kts | 300° |
| 2026-05-04 15:15 | 25.14182 | -79.30981 | 24379 ft | 365 kts | 300° |
| 2026-05-04 15:16 | 25.17004 | -79.35702 | 23080 ft | 371 kts | 300° |
| 2026-05-04 15:16 | 25.18440 | -79.38106 | 22397 ft | 373 kts | 300° |
| 2026-05-04 15:16 | 25.21296 | -79.42892 | 21248 ft | 372 kts | 300° |
| 2026-05-04 15:17 | 25.22711 | -79.45263 | 20816 ft | 368 kts | 300° |
| 2026-05-04 15:17 | 25.25492 | -79.49930 | 20002 ft | 360 kts | 299° |
| 2026-05-04 15:17 | 25.26861 | -79.52228 | 19597 ft | 356 kts | 299° |
| 2026-05-04 15:18 | 25.28218 | -79.54508 | 19188 ft | 353 kts | 299° |
| 2026-05-04 15:18 | 25.29562 | -79.56766 | 18793 ft | 351 kts | 299° |
| 2026-05-04 15:18 | 25.30895 | -79.59009 | 18406 ft | 348 kts | 299° |
| 2026-05-04 15:19 | 25.33515 | -79.63416 | 17569 ft | 342 kts | 299° |
| 2026-05-04 15:19 | 25.34816 | -79.65607 | 17184 ft | 338 kts | 298° |
| 2026-05-04 15:19 | 25.37369 | -79.69909 | 16434 ft | 330 kts | 299° |
| 2026-05-04 15:20 | 25.38631 | -79.72027 | 16059 ft | 327 kts | 300° |
| 2026-05-04 15:20 | 25.39946 | -79.74075 | 15710 ft | 325 kts | 301° |
| 2026-05-04 15:20 | 25.41256 | -79.76112 | 15412 ft | 325 kts | 301° |
| 2026-05-04 15:20 | 25.42548 | -79.78129 | 15094 ft | 324 kts | 301° |
| 2026-05-04 15:21 | 25.43848 | -79.80162 | 14779 ft | 322 kts | 301° |
| 2026-05-04 15:21 | 25.45138 | -79.82180 | 14457 ft | 320 kts | 301° |
| 2026-05-04 15:21 | 25.47685 | -79.86170 | 13827 ft | 315 kts | 301° |
| 2026-05-04 15:22 | 25.48947 | -79.88140 | 13431 ft | 314 kts | 301° |
| 2026-05-04 15:22 | 25.50210 | -79.90111 | 13080 ft | 310 kts | 301° |
| 2026-05-04 15:22 | 25.52266 | -79.93322 | 12585 ft | 304 kts | 301° |
| 2026-05-04 15:23 | 25.53880 | -79.95843 | 12159 ft | 301 kts | 301° |
| 2026-05-04 15:23 | 25.55079 | -79.97719 | 11861 ft | 296 kts | 301° |
| 2026-05-04 15:23 | 25.55867 | -79.98950 | 11669 ft | 293 kts | 301° |
| 2026-05-04 15:23 | 25.57429 | -80.01394 | 11283 ft | 288 kts | 302° |
| 2026-05-04 15:24 | 25.59334 | -80.04378 | 10752 ft | 284 kts | 302° |
| 2026-05-04 15:24 | 25.61605 | -80.07935 | 10115 ft | 280 kts | 302° |
| 2026-05-04 15:25 | 25.62724 | -80.09690 | 9782 ft | 279 kts | 302° |
| 2026-05-04 15:25 | 25.63827 | -80.11420 | 9443 ft | 277 kts | 303° |
| 2026-05-04 15:25 | 25.64932 | -80.13152 | 9120 ft | 274 kts | 303° |
| 2026-05-04 15:26 | 25.66659 | -80.16813 | 8605 ft | 263 kts | 293° |
| 2026-05-04 15:26 | 25.67431 | -80.18631 | 8376 ft | 258 kts | 294° |
| 2026-05-04 15:26 | 25.68968 | -80.22215 | 7944 ft | 258 kts | 293° |
| 2026-05-04 15:27 | 25.69720 | -80.24009 | 7674 ft | 259 kts | 294° |
| 2026-05-04 15:27 | 25.71105 | -80.27696 | 7138 ft | 258 kts | 277° |
| 2026-05-04 15:28 | 25.71032 | -80.31644 | 6656 ft | 254 kts | 268° |
| 2026-05-04 15:28 | 25.70956 | -80.33592 | 6399 ft | 252 kts | 268° |
| 2026-05-04 15:28 | 25.70789 | -80.37427 | 5889 ft | 247 kts | 268° |
| 2026-05-04 15:29 | 25.70701 | -80.39314 | 5650 ft | 244 kts | 268° |
| 2026-05-04 15:30 | 25.70337 | -80.46751 | 4725 ft | 234 kts | 268° |
| 2026-05-04 15:30 | 25.70400 | -80.51875 | 4099 ft | 218 kts | 298° |
| 2026-05-04 15:31 | 25.72831 | -80.53485 | 3505 ft | 215 kts | 358° |
| 2026-05-04 15:31 | 25.74333 | -80.53416 | 3226 ft | 215 kts | 3° |
| 2026-05-04 15:32 | 25.78461 | -80.52138 | 3048 ft | 216 kts | 48° |
| 2026-05-04 15:32 | 25.79751 | -80.49152 | 2999 ft | 221 kts | 83° |
| 2026-05-04 15:33 | 25.79868 | -80.45772 | 3025 ft | 213 kts | 87° |
| 2026-05-04 15:34 | 25.78971 | -80.40982 | 1973 ft | 209 kts | 103° |
| 2026-05-04 15:34 | 25.78603 | -80.39419 | 1400 ft | 207 kts | 101° |
| 2026-05-04 15:34 | 25.78398 | -80.36572 | 900 ft | 164 kts | 84° |
| 2026-05-04 15:35 | 25.78508 | -80.34186 | 420 ft | 147 kts | 84° |
| 2026-05-04 15:35 | 25.78564 | -80.32986 | 312 ft | 160 kts | 84° |
| 2026-05-04 15:35 | 25.78594 | -80.31754 | 181 ft | 160 kts | 83° |
| 2026-05-04 15:36 | 25.78697 | -80.29687 | 21 ft | 77 kts | 88° |
| 2026-05-04 15:36 | 25.78711 | -80.29167 | 24 ft | 56 kts | 85° |
| 2026-05-04 15:36 | 25.78736 | -80.28802 | 21 ft | 34 kts | 75° |
| 2026-05-04 15:37 | 25.78873 | -80.28632 | 18 ft | 27 kts | 34° |
| 2026-05-04 15:37 | 25.78948 | -80.28572 | 19 ft | 0 kts | 38° |
| 2026-05-04 15:37 | 25.78958 | -80.28563 | 20 ft | 5 kts | 39° |
| 2026-05-04 15:37 | 25.78999 | -80.28529 | 19 ft | 10 kts | 35° |
| 2026-05-04 15:38 | 25.79069 | -80.28478 | 20 ft | 15 kts | 34° |
| 2026-05-04 15:38 | 25.79177 | -80.28409 | 21 ft | 19 kts | 21° |
| 2026-05-04 15:38 | 25.79289 | -80.28323 | 22 ft | 21 kts | 42° |
| 2026-05-04 15:38 | 25.79368 | -80.28213 | 24 ft | 13 kts | 58° |
| 2026-05-04 15:39 | 25.79406 | -80.28187 | 23 ft | 6 kts | 23° |
| 2026-05-04 15:39 | 25.79436 | -80.28172 | 25 ft | 0 kts | 30° |
| 2026-05-04 15:39 | 25.79444 | -80.28166 | 25 ft | 0 kts | 32° |